Toyofukumaru — JD2177 — position and weather

sailwx.info

Track history (hours):
 
Tides and Currents Weather Stations Pressure Air Temp Water Temp Dewpoint Dewpoint Depression Visibility Wind Speed Wind Dir Waves Ship Positions

Toyofukumaru

Last reported at 2018-Apr-24 07:00 UTC. Time now 2018-Apr-24 07:07 UTC.
Position N 33°46' E 131°13'.

Length 165 m; draft 6.2 m.

Type: Ship. MMSI: 431200688.

Date/timePositionNaut miles runAvg speedWind from/ knotsBaromVisibWave heightAir tempDewpointWater temp
2018-Apr-24 07:00N 33°46' E 131°13'918.4
2018-Apr-24 06:30N 33°53' E 131°05'4 9.0
2018-Apr-24 06:00N 33°53' E 130°60'0 0.0
2018-Apr-24 05:29N 33°53' E 130°60'0 0.0
2018-Apr-24 04:59N 33°53' E 130°60'0 0.0
2018-Apr-24 04:29N 33°53' E 130°60'0 0.0
2018-Apr-24 03:59N 33°53' E 130°60'0 0.0
2018-Apr-24 03:29N 33°53' E 130°60'0 0.0
2018-Apr-24 02:59N 33°53' E 130°60'0 0.0
2018-Apr-24 02:29N 33°53' E 130°60'0 0.0
2018-Apr-24 01:59N 33°53' E 130°60'0 0.0
2018-Apr-24 01:29N 33°53' E 130°60'0 0.0
2018-Apr-24 00:59N 33°53' E 130°60'0 0.0
2018-Apr-24 00:29N 33°53' E 130°60'0 0.0
2018-Apr-23 23:59N 33°53' E 130°60'0 0.0
2018-Apr-23 23:29N 33°53' E 130°60'0 0.0
2018-Apr-23 22:59N 33°53' E 130°60'0 0.0
2018-Apr-23 22:29N 33°53' E 130°60'0 0.0
2018-Apr-23 21:59N 33°53' E 130°60'0 0.0
2018-Apr-23 21:29N 33°53' E 130°60'0 0.3
2018-Apr-23 21:00N 33°53' E 130°60'3 5.9
2018-Apr-23 20:30N 33°54' E 131°03'917.4
2018-Apr-23 20:00N 33°51' E 131°13'917.6
2018-Apr-23 19:31N 33°45' E 131°21'1 2.4
2018-Apr-23 19:00N 33°45' E 131°22'816.3
2018-Apr-23 18:30N 33°46' E 131°32'918.1
2018-Apr-23 18:00N 33°47' E 131°43'918.3
2018-Apr-23 17:30N 33°45' E 131°53'918.1
2018-Apr-23 17:00N 33°43' E 132°04'917.2
2018-Apr-23 16:28N 33°44' E 132°15'817.4
2018-Apr-23 16:00N 33°47' E 132°24'817.2
2018-Apr-23 15:30N 33°51' E 132°33'917.6
2018-Apr-23 15:00N 33°57' E 132°41'1017.9
2018-Apr-23 14:27N 34°04' E 132°48'57 6.7
2018-Apr-23 05:52N 34°24' E 133°54'613.6
2018-Apr-23 05:24N 34°26' E 134°01'616.3
2018-Apr-23 05:01N 34°26' E 134°09'1020.2
2018-Apr-23 04:30N 34°25' E 134°21'1020.7
2018-Apr-23 04:01N 34°29' E 134°33'1020.6
2018-Apr-23 03:31N 34°32' E 134°45'1020.8
2018-Apr-23 03:01N 34°37' E 134°56'918.6
2018-Apr-23 02:31N 34°36' E 135°07'1019.2
2018-Apr-23 02:01N 34°38' E 135°19'5 9.0
2018-Apr-23 01:30N 34°41' E 135°23'0 0.0
2018-Apr-23 00:55N 34°41' E 135°23'0 0.0
2018-Apr-23 00:25N 34°41' E 135°23'0 0.0
2018-Apr-22 23:55N 34°41' E 135°23'0 0.0
2018-Apr-22 23:25N 34°41' E 135°23'0 0.0
2018-Apr-22 23:00N 34°41' E 135°23'1 1.7
2018-Apr-22 22:30N 34°41' E 135°22'815.6
2018-Apr-22 22:01N 34°35' E 135°16'918.0
2018-Apr-22 21:30N 34°28' E 135°09'917.5
2018-Apr-22 21:01N 34°21' E 135°02'816.8
2018-Apr-22 20:31N 34°13' E 134°60'918.4
2018-Apr-22 20:00N 34°04' E 134°59'918.1
2018-Apr-22 19:31N 33°55' E 134°60'917.3
2018-Apr-22 18:59N 33°47' E 135°05'918.1
2018-Apr-22 18:29N 33°40' E 135°12'917.7
2018-Apr-22 17:59N 33°33' E 135°19'3816.6
2018-Apr-22 15:40N 33°33' E 136°05'1620.2
2018-Apr-22 14:52N 33°45' E 136°18'1320.2
2018-Apr-22 14:14N 33°53' E 136°30'420.3
2018-Apr-22 14:00N 33°57' E 136°34'1020.5
2018-Apr-22 13:30N 34°04' E 136°43'1320.1
2018-Apr-22 12:52N 34°13' E 136°54'718.9
2018-Apr-22 12:30N 34°19' E 136°58'1019.7
2018-Apr-22 12:00N 34°28' E 137°01'612.6
2018-Apr-22 11:31N 34°34' E 136°59'914.8
2018-Apr-22 10:55N 34°41' E 137°06'718.3
2018-Apr-22 10:30N 34°44' E 137°14'4 1.1
2018-Apr-22 06:38N 34°44' E 137°20'0 3.6
2018-Apr-22 06:30N 34°44' E 137°19'612.6
2018-Apr-22 06:00N 34°43' E 137°11'1019.0
2018-Apr-22 05:30N 34°39' E 137°01'1019.5
2018-Apr-22 05:00N 34°43' E 136°50'918.9
2018-Apr-22 04:30N 34°52' E 136°45'918.7
2018-Apr-22 04:00N 35°01' E 136°50'3 6.7
2018-Apr-22 03:30N 35°03' E 136°53'0 0.0
2018-Apr-22 02:59N 35°03' E 136°53'0 0.0
2018-Apr-22 02:29N 35°03' E 136°53'0 0.0
2018-Apr-22 01:59N 35°03' E 136°53'1 1.2
2018-Apr-22 01:30N 35°03' E 136°53'0 0.1
2018-Apr-22 00:59N 35°03' E 136°53'0 0.0
2018-Apr-22 00:29N 35°03' E 136°53'0 0.0
2018-Apr-21 23:59N 35°03' E 136°53'0 0.0
2018-Apr-21 23:30N 35°03' E 136°53'3 6.8
2018-Apr-21 23:00N 35°00' E 136°50'1019.2
2018-Apr-21 22:30N 34°51' E 136°47'1019.9
2018-Apr-21 22:00N 34°42' E 136°52'917.9
2018-Apr-21 21:30N 34°35' E 136°59'713.5
2018-Apr-21 20:58N 34°33' E 137°07'1220.1
2018-Apr-21 20:23N 34°31' E 137°21'920.3
2018-Apr-21 19:57N 34°31' E 137°32'920.1
2018-Apr-21 19:31N 34°31' E 137°43'1120.0
2018-Apr-21 18:59N 34°31' E 137°56'1220.0
2018-Apr-21 18:23N 34°31' E 138°10'819.8
2018-Apr-21 18:00N 34°31' E 138°19'1119.9
2018-Apr-21 17:27N 34°32' E 138°32'920.3
2018-Apr-21 17:00N 34°32' E 138°43'1019.3
2018-Apr-21 16:30N 34°32' E 138°55'918.3
2018-Apr-21 16:00N 34°36' E 139°05'918.2
2018-Apr-21 15:30N 34°43' E 139°12'918.5
2018-Apr-21 15:00N 34°50' E 139°19'918.1
2018-Apr-21 14:30N 34°56' E 139°27'918.9
2018-Apr-21 14:00N 35°02' E 139°36'1018.9
2018-Apr-21 13:30N 35°09' E 139°45'714.1
2018-Apr-21 13:00N 35°16' E 139°46'713.2
2018-Apr-21 12:30N 35°21' E 139°42'3 6.2
2018-Apr-21 12:00N 35°23' E 139°39'0 0.0
2018-Apr-21 11:30N 35°23' E 139°39'0 0.0
2018-Apr-21 11:00N 35°23' E 139°39'0 0.0
2018-Apr-21 10:30N 35°23' E 139°39'0 0.0
2018-Apr-21 10:00N 35°23' E 139°39'0 0.0
2018-Apr-21 09:30N 35°23' E 139°39'0 0.0
2018-Apr-21 09:00N 35°23' E 139°39'0 0.0
2018-Apr-21 08:30N 35°23' E 139°39'0 0.0
2018-Apr-21 08:00N 35°23' E 139°39'0 0.0
2018-Apr-21 07:30N 35°23' E 139°39'0 1.0
2018-Apr-21 07:00N 35°23' E 139°39'714.9
2018-Apr-21 06:30N 35°27' E 139°47'1019.4
2018-Apr-21 06:00N 35°33' E 139°57'714.1
2018-Apr-21 05:30N 35°36' E 140°05'0 0.3
2018-Apr-21 05:00N 35°36' E 140°05'0 0.0
2018-Apr-21 04:29N 35°36' E 140°05'0 0.0
2018-Apr-21 03:59N 35°36' E 140°05'0 0.0
2018-Apr-21 03:29N 35°36' E 140°05'0 0.0
2018-Apr-21 02:56N 35°36' E 140°05'0 0.0
2018-Apr-21 02:29N 35°36' E 140°05'0 0.0
2018-Apr-21 01:56N 35°36' E 140°05'0 0.0
2018-Apr-21 01:26N 35°36' E 140°05'0 0.0
2018-Apr-21 00:56N 35°36' E 140°05'0 0.0
2018-Apr-21 00:26N 35°36' E 140°05'0 0.0
2018-Apr-20 23:56N 35°36' E 140°05'0 0.0
2018-Apr-20 23:26N 35°36' E 140°05'0 0.0
2018-Apr-20 22:59N 35°36' E 140°05'0 0.0
2018-Apr-20 22:30N 35°36' E 140°05'1 2.7
2018-Apr-20 22:01N 35°35' E 140°04'714.8
2018-Apr-20 21:31N 35°31' E 139°56'917.1
2018-Apr-20 21:00N 35°26' E 139°48'612.9
2018-Apr-20 20:30N 35°20' E 139°44'611.9
2018-Apr-20 20:00N 35°15' E 139°47'815.6
2018-Apr-20 19:30N 35°07' E 139°45'1019.0
2018-Apr-20 19:00N 34°60' E 139°38'1019.5
2018-Apr-20 18:30N 34°54' E 139°28'1019.5
2018-Apr-20 18:00N 34°48' E 139°18'1119.8
2018-Apr-20 17:28N 34°41' E 139°09'920.0
2018-Apr-20 17:00N 34°34' E 139°01'1019.2
2018-Apr-20 16:30N 34°31' E 138°50'1221.0
2018-Apr-20 15:56N 34°30' E 138°36'920.7
2018-Apr-20 15:30N 34°30' E 138°25'1020.9
2018-Apr-20 15:00N 34°29' E 138°12'1120.8
2018-Apr-20 14:30N 34°30' E 137°60'1220.6
2018-Apr-20 13:54N 34°31' E 137°45'1320.7
2018-Apr-20 13:18N 34°31' E 137°29'620.6
2018-Apr-20 13:00N 34°31' E 137°22'1020.5
2018-Apr-20 12:31N 34°32' E 137°10'815.1
2018-Apr-20 12:00N 34°33' E 137°01'611.6
2018-Apr-20 11:30N 34°37' E 136°55'1019.8
2018-Apr-20 11:01N 34°44' E 136°47'1020.4
2018-Apr-20 10:30N 34°54' E 136°46'917.5
2018-Apr-20 10:00N 35°02' E 136°51'2 3.5
2018-Apr-20 09:28N 35°03' E 136°53'0 0.0
2018-Apr-20 08:58N 35°03' E 136°53'0 0.0
2018-Apr-20 08:28N 35°03' E 136°53'0 0.0
2018-Apr-20 07:58N 35°03' E 136°53'0 0.0
2018-Apr-20 07:28N 35°03' E 136°53'1 1.5
2018-Apr-20 07:00N 35°03' E 136°53'0 0.1
2018-Apr-20 06:29N 35°03' E 136°53'0 0.0
2018-Apr-20 05:59N 35°03' E 136°53'0 0.0
2018-Apr-20 05:29N 35°03' E 136°53'0 0.0
2018-Apr-20 04:59N 35°03' E 136°53'0 0.0
2018-Apr-20 04:29N 35°03' E 136°53'0 0.0
2018-Apr-20 03:59N 35°03' E 136°53'0 0.0
2018-Apr-20 03:29N 35°03' E 136°53'0 0.0
2018-Apr-20 02:59N 35°03' E 136°53'0 0.0
2018-Apr-20 02:29N 35°03' E 136°53'0 0.0
2018-Apr-20 01:59N 35°03' E 136°53'0 0.0
2018-Apr-20 01:29N 35°03' E 136°53'0 0.0
2018-Apr-20 00:59N 35°03' E 136°53'0 0.0
2018-Apr-20 00:29N 35°03' E 136°53'0 0.0
2018-Apr-19 23:59N 35°03' E 136°53'0 0.0
2018-Apr-19 23:29N 35°03' E 136°53'0 0.0
2018-Apr-19 22:59N 35°03' E 136°53'0 0.0
2018-Apr-19 22:29N 35°03' E 136°53'0 0.0
2018-Apr-19 21:59N 35°03' E 136°53'0 0.0
2018-Apr-19 21:29N 35°03' E 136°53'0 0.4
2018-Apr-19 21:00N 35°03' E 136°53'511.1
2018-Apr-19 20:30N 34°59' E 136°49'917.8
2018-Apr-19 20:00N 34°50' E 136°47'1020.2
2018-Apr-19 19:30N 34°41' E 136°54'917.4
2018-Apr-19 19:00N 34°34' E 136°60'10312.8
2018-Apr-19 10:58N 33°28' E 135°25'1716.9
2018-Apr-19 09:56N 33°40' E 135°10'817.7
2018-Apr-19 09:30N 33°46' E 135°04'917.5
2018-Apr-19 09:01N 33°53' E 134°59'917.2
2018-Apr-19 08:31N 34°01' E 134°59'918.2
2018-Apr-19 08:01N 34°11' E 134°58'1020.1
2018-Apr-19 07:30N 34°21' E 134°59'918.2
2018-Apr-19 07:01N 34°29' E 135°02'816.1
2018-Apr-19 06:30N 34°37' E 134°59'1020.7
2018-Apr-19 06:00N 34°33' E 134°48'918.8
2018-Apr-19 05:30N 34°29' E 134°37'918.6
2018-Apr-19 05:00N 34°25' E 134°27'917.9
2018-Apr-19 04:30N 34°24' E 134°16'714.3
2018-Apr-19 04:00N 34°26' E 134°08'712.9
2018-Apr-19 03:28N 34°25' E 133°59'712.7
2018-Apr-19 02:56N 34°23' E 133°52'17 2.5
2018-Apr-18 20:15N 34°17' E 133°33'35 9.4
2018-Apr-18 16:34N 34°07' E 132°52'218.1
2018-Apr-18 16:28N 34°06' E 132°51'918.6
2018-Apr-18 16:00N 33°59' E 132°44'918.6
2018-Apr-18 15:30N 33°52' E 132°36'1018.5
2018-Apr-18 14:58N 33°47' E 132°26'918.9
2018-Apr-18 14:29N 33°43' E 132°17'918.9
2018-Apr-18 14:00N 33°40' E 132°06'1217.8
2018-Apr-18 13:20N 33°43' E 131°52'618.1
2018-Apr-18 13:00N 33°44' E 131°45'917.6
2018-Apr-18 12:30N 33°47' E 131°35'917.5
2018-Apr-18 12:00N 33°48' E 131°25'816.6
2018-Apr-18 11:30N 33°42' E 131°18'511.0
2018-Apr-18 11:01N 33°37' E 131°15'0 0.0
2018-Apr-18 10:26N 33°37' E 131°15'0 0.0
2018-Apr-18 09:59N 33°37' E 131°15'0 0.0
2018-Apr-18 09:29N 33°37' E 131°15'0 0.0
2018-Apr-18 08:59N 33°37' E 131°15'0 0.0
2018-Apr-18 08:29N 33°37' E 131°15'0 0.0
2018-Apr-18 07:59N 33°37' E 131°15'0 0.2
2018-Apr-18 07:31N 33°37' E 131°15'510.5
2018-Apr-18 07:01N 33°42' E 131°15'918.8
2018-Apr-18 06:30N 33°49' E 131°08'713.3
2018-Apr-18 06:00N 33°53' E 131°02'2 2.9
2018-Apr-18 05:27N 33°53' E 130°60'0 0.0
2018-Apr-18 04:57N 33°53' E 130°60'0 0.0
2018-Apr-18 04:27N 33°53' E 130°60'0 0.0
2018-Apr-18 03:57N 33°53' E 130°60'0 0.0
2018-Apr-18 03:27N 33°53' E 130°60'0 0.0
2018-Apr-18 03:00N 33°53' E 130°60'0 0.0
2018-Apr-18 02:27N 33°53' E 130°60'0 0.0
2018-Apr-18 01:57N 33°53' E 130°60'0 0.0
2018-Apr-18 01:27N 33°53' E 130°60'0 0.0
2018-Apr-18 00:57N 33°53' E 130°60'0 0.0
2018-Apr-18 00:27N 33°53' E 130°60'0 0.0
2018-Apr-17 23:57N 33°53' E 130°60'0 0.0
2018-Apr-17 23:27N 33°53' E 130°60'0 0.0
2018-Apr-17 22:57N 33°53' E 130°60'0 0.0
2018-Apr-17 22:27N 33°53' E 130°60'0 0.0
2018-Apr-17 21:57N 33°53' E 130°60'0 0.0
2018-Apr-17 21:27N 33°53' E 130°60'0 0.0
2018-Apr-17 20:57N 33°53' E 130°60'0 0.0
2018-Apr-17 20:27N 33°53' E 130°60'0 0.3
2018-Apr-17 20:00N 33°53' E 130°60'4 8.6
2018-Apr-17 19:31N 33°54' E 131°05'816.9
2018-Apr-17 19:00N 33°52' E 131°14'1019.1
2018-Apr-17 18:30N 33°49' E 131°26'918.9
2018-Apr-17 18:00N 33°48' E 131°37'918.9
2018-Apr-17 17:30N 33°46' E 131°48'917.6
2018-Apr-17 17:00N 33°42' E 131°57'1117.7
2018-Apr-17 16:23N 33°34' E 132°07'716.1
2018-Apr-17 15:56N 33°37' E 132°15'818.8
2018-Apr-17 15:30N 33°43' E 132°21'1018.2
2018-Apr-17 14:59N 33°49' E 132°30'817.7
2018-Apr-17 14:30N 33°55' E 132°38'816.0
2018-Apr-17 14:01N 34°00' E 132°44'68 7.5
2018-Apr-17 04:58N 34°25' E 134°00'714.0
2018-Apr-17 04:30N 34°26' E 134°08'918.5
2018-Apr-17 04:00N 34°25' E 134°19'1020.3
2018-Apr-17 03:30N 34°28' E 134°30'1020.5
2018-Apr-17 03:00N 34°32' E 134°42'1121.0
2018-Apr-17 02:30N 34°36' E 134°54'1019.2
2018-Apr-17 02:00N 34°36' E 135°06'1019.7
2018-Apr-17 01:30N 34°37' E 135°17'611.8
2018-Apr-17 01:01N 34°41' E 135°23'0 0.0
2018-Apr-17 00:29N 34°41' E 135°23'0 0.0
2018-Apr-16 23:59N 34°41' E 135°23'0 0.0
2018-Apr-16 23:29N 34°41' E 135°23'0 0.0
2018-Apr-16 22:59N 34°41' E 135°23'0 0.4
2018-Apr-16 22:30N 34°41' E 135°23'5 9.7
2018-Apr-16 22:00N 34°38' E 135°19'714.6
2018-Apr-16 21:30N 34°31' E 135°15'714.0
2018-Apr-16 21:00N 34°26' E 135°09'918.1
2018-Apr-16 20:30N 34°20' E 135°01'816.7
2018-Apr-16 20:00N 34°11' E 134°60'918.1
2018-Apr-16 19:30N 34°02' E 134°60'917.9
2018-Apr-16 19:00N 33°53' E 135°01'816.1
2018-Apr-16 18:30N 33°46' E 135°04'918.3
2018-Apr-16 17:59N 33°39' E 135°12'1319.4
2018-Apr-16 17:19N 33°31' E 135°24'6318.1
2018-Apr-16 13:50N 33°55' E 136°34'820.6
2018-Apr-16 13:27N 34°01' E 136°39'920.3
2018-Apr-16 13:00N 34°07' E 136°48'2319.3
2018-Apr-16 11:50N 34°27' E 137°01'516.6
2018-Apr-16 11:30N 34°33' E 137°01'813.0
2018-Apr-16 10:56N 34°40' E 137°03'819.8
2018-Apr-16 10:31N 34°43' E 137°12'6 1.3
2018-Apr-16 05:55N 34°44' E 137°19'410.8
2018-Apr-16 05:30N 34°44' E 137°14'1119.5
2018-Apr-16 04:57N 34°39' E 137°02'818.7
2018-Apr-16 04:30N 34°42' E 136°52'1019.6
2018-Apr-16 04:00N 34°50' E 136°45'1019.3
2018-Apr-16 03:30N 34°59' E 136°47'610.6
2018-Apr-16 02:56N 35°03' E 136°53'0 0.0
2018-Apr-16 02:29N 35°03' E 136°53'0 0.0
2018-Apr-16 02:00N 35°03' E 136°53'0 0.0
2018-Apr-16 01:26N 35°03' E 136°53'0 0.9
2018-Apr-16 01:01N 35°03' E 136°53'0 0.6
2018-Apr-16 00:30N 35°03' E 136°53'0 0.0
2018-Apr-15 23:56N 35°03' E 136°53'0 0.0
2018-Apr-15 23:26N 35°03' E 136°53'0 0.0
2018-Apr-15 22:56N 35°03' E 136°53'0 0.4
2018-Apr-15 22:30N 35°03' E 136°53'713.6
2018-Apr-15 22:00N 34°57' E 136°48'1019.2
2018-Apr-15 21:30N 34°48' E 136°48'1019.6
2018-Apr-15 21:00N 34°40' E 136°55'815.2
2018-Apr-15 20:30N 34°34' E 137°01'916.7
2018-Apr-15 19:57N 34°32' E 137°12'918.7
2018-Apr-15 19:28N 34°31' E 137°23'817.7
2018-Apr-15 19:00N 34°31' E 137°32'1017.7
2018-Apr-15 18:25N 34°30' E 137°45'817.9
2018-Apr-15 17:59N 34°30' E 137°55'917.5
2018-Apr-15 17:26N 34°30' E 138°06'817.8
2018-Apr-15 17:00N 34°31' E 138°16'917.5
2018-Apr-15 16:29N 34°31' E 138°26'817.2
2018-Apr-15 16:00N 34°31' E 138°37'916.7
2018-Apr-15 15:28N 34°31' E 138°47'715.9
2018-Apr-15 15:00N 34°32' E 138°56'815.9
2018-Apr-15 14:30N 34°37' E 139°04'917.9
2018-Apr-15 14:01N 34°44' E 139°11'918.6
2018-Apr-15 13:30N 34°51' E 139°19'918.3
2018-Apr-15 13:00N 34°56' E 139°28'918.8
2018-Apr-15 12:31N 35°02' E 139°36'1019.3
2018-Apr-15 12:00N 35°09' E 139°44'713.9
2018-Apr-15 11:30N 35°16' E 139°46'713.3
2018-Apr-15 11:00N 35°22' E 139°42'3 5.6
2018-Apr-15 10:30N 35°23' E 139°39'0 0.0
2018-Apr-15 09:58N 35°23' E 139°39'0 0.0
2018-Apr-15 09:28N 35°23' E 139°39'0 0.0
2018-Apr-15 08:58N 35°23' E 139°39'0 0.0
2018-Apr-15 08:28N 35°23' E 139°39'0 0.0
2018-Apr-15 07:58N 35°23' E 139°39'0 0.0
2018-Apr-15 07:28N 35°23' E 139°39'0 0.0
2018-Apr-15 06:58N 35°23' E 139°39'0 0.0
2018-Apr-15 06:28N 35°23' E 139°39'0 0.0
2018-Apr-15 05:55N 35°23' E 139°39'0 0.3
2018-Apr-15 05:30N 35°24' E 139°39'713.4
2018-Apr-15 05:00N 35°26' E 139°46'1020.0
2018-Apr-15 04:30N 35°33' E 139°56'815.3
2018-Apr-15 04:00N 35°36' E 140°04'1 2.2
2018-Apr-15 03:31N 35°36' E 140°06'0 0.0
2018-Apr-15 02:58N 35°36' E 140°06'0 0.0
2018-Apr-15 02:28N 35°36' E 140°06'0 0.0
2018-Apr-15 01:55N 35°36' E 140°06'0 0.0
2018-Apr-15 01:25N 35°36' E 140°06'0 0.0
2018-Apr-15 00:55N 35°36' E 140°06'0 0.0
2018-Apr-15 00:25N 35°36' E 140°06'0 0.0
2018-Apr-14 23:55N 35°36' E 140°06'0 0.0
2018-Apr-14 23:28N 35°36' E 140°06'0 0.0
2018-Apr-14 22:58N 35°36' E 140°06'0 0.0
2018-Apr-14 22:25N 35°36' E 140°06'0 0.0
2018-Apr-14 21:58N 35°36' E 140°06'0 0.0
2018-Apr-14 21:28N 35°36' E 140°06'0 0.0
2018-Apr-14 20:55N 35°36' E 140°06'0 0.0
2018-Apr-14 20:30N 35°36' E 140°06'2 4.5
2018-Apr-14 20:00N 35°35' E 140°03'713.0
2018-Apr-14 19:30N 35°32' E 139°56'917.0
2018-Apr-14 19:00N 35°26' E 139°48'713.5
2018-Apr-14 18:30N 35°20' E 139°44'612.2
2018-Apr-14 18:00N 35°14' E 139°47'816.0
2018-Apr-14 17:30N 35°07' E 139°45'917.8
2018-Apr-14 17:00N 34°59' E 139°39'918.2
2018-Apr-14 16:30N 34°53' E 139°31'918.8
2018-Apr-14 16:00N 34°50' E 139°20'1319.2
2018-Apr-14 15:21N 34°40' E 139°11'619.0
2018-Apr-14 15:00N 34°35' E 139°05'613.0
2018-Apr-14 14:30N 34°31' E 138°59'917.7
2018-Apr-14 13:58N 34°29' E 138°48'919.0
2018-Apr-14 13:29N 34°29' E 138°37'918.9
2018-Apr-14 13:00N 34°29' E 138°26'917.8
2018-Apr-14 12:31N 34°29' E 138°15'1018.9
2018-Apr-14 12:00N 34°29' E 138°04'1119.2
2018-Apr-14 11:26N 34°30' E 137°51'1019.5
2018-Apr-14 10:56N 34°30' E 137°39'1119.5
2018-Apr-14 10:21N 34°31' E 137°25'819.5
2018-Apr-14 09:57N 34°32' E 137°16'919.1
2018-Apr-14 09:30N 34°32' E 137°05'713.5
2018-Apr-14 09:00N 34°35' E 136°58'1019.7
2018-Apr-14 08:30N 34°42' E 136°49'1019.6
2018-Apr-14 08:00N 34°51' E 136°46'918.7
2018-Apr-14 07:30N 34°60' E 136°49'4 8.1
2018-Apr-14 07:00N 35°03' E 136°53'  
Track history (hours):
 
Tides and Currents Weather Stations Pressure Air Temp Water Temp Dewpoint Dewpoint Depression Visibility Wind Speed Wind Dir Waves Ship Positions

Toyofukumaru

Last reported at 2018-Apr-24 07:00 UTC. Time now 2018-Apr-24 07:07 UTC.
Position N 33°46' E 131°13'.

Length 165 m; draft 6.2 m.

Type: Ship. MMSI: 431200688.

Date/timePositionNaut miles runAvg speedWind from/ knotsBaromVisibWave heightAir tempDewpointWater temp
2018-Apr-24 07:00N 33°46' E 131°13'918.4
2018-Apr-24 06:30N 33°53' E 131°05'4 9.0
2018-Apr-24 06:00N 33°53' E 130°60'0 0.0
2018-Apr-24 05:29N 33°53' E 130°60'0 0.0
2018-Apr-24 04:59N 33°53' E 130°60'0 0.0
2018-Apr-24 04:29N 33°53' E 130°60'0 0.0
2018-Apr-24 03:59N 33°53' E 130°60'0 0.0
2018-Apr-24 03:29N 33°53' E 130°60'0 0.0
2018-Apr-24 02:59N 33°53' E 130°60'0 0.0
2018-Apr-24 02:29N 33°53' E 130°60'0 0.0
2018-Apr-24 01:59N 33°53' E 130°60'0 0.0
2018-Apr-24 01:29N 33°53' E 130°60'0 0.0
2018-Apr-24 00:59N 33°53' E 130°60'0 0.0
2018-Apr-24 00:29N 33°53' E 130°60'0 0.0
2018-Apr-23 23:59N 33°53' E 130°60'0 0.0
2018-Apr-23 23:29N 33°53' E 130°60'0 0.0
2018-Apr-23 22:59N 33°53' E 130°60'0 0.0
2018-Apr-23 22:29N 33°53' E 130°60'0 0.0
2018-Apr-23 21:59N 33°53' E 130°60'0 0.0
2018-Apr-23 21:29N 33°53' E 130°60'0 0.3
2018-Apr-23 21:00N 33°53' E 130°60'3 5.9
2018-Apr-23 20:30N 33°54' E 131°03'917.4
2018-Apr-23 20:00N 33°51' E 131°13'917.6
2018-Apr-23 19:31N 33°45' E 131°21'1 2.4
2018-Apr-23 19:00N 33°45' E 131°22'816.3
2018-Apr-23 18:30N 33°46' E 131°32'918.1
2018-Apr-23 18:00N 33°47' E 131°43'918.3
2018-Apr-23 17:30N 33°45' E 131°53'918.1
2018-Apr-23 17:00N 33°43' E 132°04'917.2
2018-Apr-23 16:28N 33°44' E 132°15'817.4
2018-Apr-23 16:00N 33°47' E 132°24'817.2
2018-Apr-23 15:30N 33°51' E 132°33'917.6
2018-Apr-23 15:00N 33°57' E 132°41'1017.9
2018-Apr-23 14:27N 34°04' E 132°48'57 6.7
2018-Apr-23 05:52N 34°24' E 133°54'613.6
2018-Apr-23 05:24N 34°26' E 134°01'616.3
2018-Apr-23 05:01N 34°26' E 134°09'1020.2
2018-Apr-23 04:30N 34°25' E 134°21'1020.7
2018-Apr-23 04:01N 34°29' E 134°33'1020.6
2018-Apr-23 03:31N 34°32' E 134°45'1020.8
2018-Apr-23 03:01N 34°37' E 134°56'918.6
2018-Apr-23 02:31N 34°36' E 135°07'1019.2
2018-Apr-23 02:01N 34°38' E 135°19'5 9.0
2018-Apr-23 01:30N 34°41' E 135°23'0 0.0
2018-Apr-23 00:55N 34°41' E 135°23'0 0.0
2018-Apr-23 00:25N 34°41' E 135°23'0 0.0
2018-Apr-22 23:55N 34°41' E 135°23'0 0.0
2018-Apr-22 23:25N 34°41' E 135°23'0 0.0
2018-Apr-22 23:00N 34°41' E 135°23'1 1.7
2018-Apr-22 22:30N 34°41' E 135°22'815.6
2018-Apr-22 22:01N 34°35' E 135°16'918.0
2018-Apr-22 21:30N 34°28' E 135°09'917.5
2018-Apr-22 21:01N 34°21' E 135°02'816.8
2018-Apr-22 20:31N 34°13' E 134°60'918.4
2018-Apr-22 20:00N 34°04' E 134°59'918.1
2018-Apr-22 19:31N 33°55' E 134°60'917.3
2018-Apr-22 18:59N 33°47' E 135°05'918.1
2018-Apr-22 18:29N 33°40' E 135°12'917.7
2018-Apr-22 17:59N 33°33' E 135°19'3816.6
2018-Apr-22 15:40N 33°33' E 136°05'1620.2
2018-Apr-22 14:52N 33°45' E 136°18'1320.2
2018-Apr-22 14:14N 33°53' E 136°30'420.3
2018-Apr-22 14:00N 33°57' E 136°34'1020.5
2018-Apr-22 13:30N 34°04' E 136°43'1320.1
2018-Apr-22 12:52N 34°13' E 136°54'718.9
2018-Apr-22 12:30N 34°19' E 136°58'1019.7
2018-Apr-22 12:00N 34°28' E 137°01'612.6
2018-Apr-22 11:31N 34°34' E 136°59'914.8
2018-Apr-22 10:55N 34°41' E 137°06'718.3
2018-Apr-22 10:30N 34°44' E 137°14'4 1.1
2018-Apr-22 06:38N 34°44' E 137°20'0 3.6
2018-Apr-22 06:30N 34°44' E 137°19'612.6
2018-Apr-22 06:00N 34°43' E 137°11'1019.0
2018-Apr-22 05:30N 34°39' E 137°01'1019.5
2018-Apr-22 05:00N 34°43' E 136°50'918.9
2018-Apr-22 04:30N 34°52' E 136°45'918.7
2018-Apr-22 04:00N 35°01' E 136°50'3 6.7
2018-Apr-22 03:30N 35°03' E 136°53'0 0.0
2018-Apr-22 02:59N 35°03' E 136°53'0 0.0
2018-Apr-22 02:29N 35°03' E 136°53'0 0.0
2018-Apr-22 01:59N 35°03' E 136°53'1 1.2
2018-Apr-22 01:30N 35°03' E 136°53'0 0.1
2018-Apr-22 00:59N 35°03' E 136°53'0 0.0
2018-Apr-22 00:29N 35°03' E 136°53'0 0.0
2018-Apr-21 23:59N 35°03' E 136°53'0 0.0
2018-Apr-21 23:30N 35°03' E 136°53'3 6.8
2018-Apr-21 23:00N 35°00' E 136°50'1019.2
2018-Apr-21 22:30N 34°51' E 136°47'1019.9
2018-Apr-21 22:00N 34°42' E 136°52'917.9
2018-Apr-21 21:30N 34°35' E 136°59'713.5
2018-Apr-21 20:58N 34°33' E 137°07'1220.1
2018-Apr-21 20:23N 34°31' E 137°21'920.3
2018-Apr-21 19:57N 34°31' E 137°32'920.1
2018-Apr-21 19:31N 34°31' E 137°43'1120.0
2018-Apr-21 18:59N 34°31' E 137°56'1220.0
2018-Apr-21 18:23N 34°31' E 138°10'819.8
2018-Apr-21 18:00N 34°31' E 138°19'1119.9
2018-Apr-21 17:27N 34°32' E 138°32'920.3
2018-Apr-21 17:00N 34°32' E 138°43'1019.3
2018-Apr-21 16:30N 34°32' E 138°55'918.3
2018-Apr-21 16:00N 34°36' E 139°05'918.2
2018-Apr-21 15:30N 34°43' E 139°12'918.5
2018-Apr-21 15:00N 34°50' E 139°19'918.1
2018-Apr-21 14:30N 34°56' E 139°27'918.9
2018-Apr-21 14:00N 35°02' E 139°36'1018.9
2018-Apr-21 13:30N 35°09' E 139°45'714.1
2018-Apr-21 13:00N 35°16' E 139°46'713.2
2018-Apr-21 12:30N 35°21' E 139°42'3 6.2
2018-Apr-21 12:00N 35°23' E 139°39'0 0.0
2018-Apr-21 11:30N 35°23' E 139°39'0 0.0
2018-Apr-21 11:00N 35°23' E 139°39'0 0.0
2018-Apr-21 10:30N 35°23' E 139°39'0 0.0
2018-Apr-21 10:00N 35°23' E 139°39'0 0.0
2018-Apr-21 09:30N 35°23' E 139°39'0 0.0
2018-Apr-21 09:00N 35°23' E 139°39'0 0.0
2018-Apr-21 08:30N 35°23' E 139°39'0 0.0
2018-Apr-21 08:00N 35°23' E 139°39'0 0.0
2018-Apr-21 07:30N 35°23' E 139°39'0 1.0
2018-Apr-21 07:00N 35°23' E 139°39'714.9
2018-Apr-21 06:30N 35°27' E 139°47'1019.4
2018-Apr-21 06:00N 35°33' E 139°57'714.1
2018-Apr-21 05:30N 35°36' E 140°05'0 0.3
2018-Apr-21 05:00N 35°36' E 140°05'0 0.0
2018-Apr-21 04:29N 35°36' E 140°05'0 0.0
2018-Apr-21 03:59N 35°36' E 140°05'0 0.0
2018-Apr-21 03:29N 35°36' E 140°05'0 0.0
2018-Apr-21 02:56N 35°36' E 140°05'0 0.0
2018-Apr-21 02:29N 35°36' E 140°05'0 0.0
2018-Apr-21 01:56N 35°36' E 140°05'0 0.0
2018-Apr-21 01:26N 35°36' E 140°05'0 0.0
2018-Apr-21 00:56N 35°36' E 140°05'0 0.0
2018-Apr-21 00:26N 35°36' E 140°05'0 0.0
2018-Apr-20 23:56N 35°36' E 140°05'0 0.0
2018-Apr-20 23:26N 35°36' E 140°05'0 0.0
2018-Apr-20 22:59N 35°36' E 140°05'0 0.0
2018-Apr-20 22:30N 35°36' E 140°05'1 2.7
2018-Apr-20 22:01N 35°35' E 140°04'714.8
2018-Apr-20 21:31N 35°31' E 139°56'917.1
2018-Apr-20 21:00N 35°26' E 139°48'612.9
2018-Apr-20 20:30N 35°20' E 139°44'611.9
2018-Apr-20 20:00N 35°15' E 139°47'815.6
2018-Apr-20 19:30N 35°07' E 139°45'1019.0
2018-Apr-20 19:00N 34°60' E 139°38'1019.5
2018-Apr-20 18:30N 34°54' E 139°28'1019.5
2018-Apr-20 18:00N 34°48' E 139°18'1119.8
2018-Apr-20 17:28N 34°41' E 139°09'920.0
2018-Apr-20 17:00N 34°34' E 139°01'1019.2
2018-Apr-20 16:30N 34°31' E 138°50'1221.0
2018-Apr-20 15:56N 34°30' E 138°36'920.7
2018-Apr-20 15:30N 34°30' E 138°25'1020.9
2018-Apr-20 15:00N 34°29' E 138°12'1120.8
2018-Apr-20 14:30N 34°30' E 137°60'1220.6
2018-Apr-20 13:54N 34°31' E 137°45'1320.7
2018-Apr-20 13:18N 34°31' E 137°29'620.6
2018-Apr-20 13:00N 34°31' E 137°22'1020.5
2018-Apr-20 12:31N 34°32' E 137°10'815.1
2018-Apr-20 12:00N 34°33' E 137°01'611.6
2018-Apr-20 11:30N 34°37' E 136°55'1019.8
2018-Apr-20 11:01N 34°44' E 136°47'1020.4
2018-Apr-20 10:30N 34°54' E 136°46'917.5
2018-Apr-20 10:00N 35°02' E 136°51'2 3.5
2018-Apr-20 09:28N 35°03' E 136°53'0 0.0
2018-Apr-20 08:58N 35°03' E 136°53'0 0.0
2018-Apr-20 08:28N 35°03' E 136°53'0 0.0
2018-Apr-20 07:58N 35°03' E 136°53'0 0.0
2018-Apr-20 07:28N 35°03' E 136°53'1 1.5
2018-Apr-20 07:00N 35°03' E 136°53'0 0.1
2018-Apr-20 06:29N 35°03' E 136°53'0 0.0
2018-Apr-20 05:59N 35°03' E 136°53'0 0.0
2018-Apr-20 05:29N 35°03' E 136°53'0 0.0
2018-Apr-20 04:59N 35°03' E 136°53'0 0.0
2018-Apr-20 04:29N 35°03' E 136°53'0 0.0
2018-Apr-20 03:59N 35°03' E 136°53'0 0.0
2018-Apr-20 03:29N 35°03' E 136°53'0 0.0
2018-Apr-20 02:59N 35°03' E 136°53'0 0.0
2018-Apr-20 02:29N 35°03' E 136°53'0 0.0
2018-Apr-20 01:59N 35°03' E 136°53'0 0.0
2018-Apr-20 01:29N 35°03' E 136°53'0 0.0
2018-Apr-20 00:59N 35°03' E 136°53'0 0.0
2018-Apr-20 00:29N 35°03' E 136°53'0 0.0
2018-Apr-19 23:59N 35°03' E 136°53'0 0.0
2018-Apr-19 23:29N 35°03' E 136°53'0 0.0
2018-Apr-19 22:59N 35°03' E 136°53'0 0.0
2018-Apr-19 22:29N 35°03' E 136°53'0 0.0
2018-Apr-19 21:59N 35°03' E 136°53'0 0.0
2018-Apr-19 21:29N 35°03' E 136°53'0 0.4
2018-Apr-19 21:00N 35°03' E 136°53'511.1
2018-Apr-19 20:30N 34°59' E 136°49'917.8
2018-Apr-19 20:00N 34°50' E 136°47'1020.2
2018-Apr-19 19:30N 34°41' E 136°54'917.4
2018-Apr-19 19:00N 34°34' E 136°60'10312.8
2018-Apr-19 10:58N 33°28' E 135°25'1716.9
2018-Apr-19 09:56N 33°40' E 135°10'817.7
2018-Apr-19 09:30N 33°46' E 135°04'917.5
2018-Apr-19 09:01N 33°53' E 134°59'917.2
2018-Apr-19 08:31N 34°01' E 134°59'918.2
2018-Apr-19 08:01N 34°11' E 134°58'1020.1
2018-Apr-19 07:30N 34°21' E 134°59'918.2
2018-Apr-19 07:01N 34°29' E 135°02'816.1
2018-Apr-19 06:30N 34°37' E 134°59'1020.7
2018-Apr-19 06:00N 34°33' E 134°48'918.8
2018-Apr-19 05:30N 34°29' E 134°37'918.6
2018-Apr-19 05:00N 34°25' E 134°27'917.9
2018-Apr-19 04:30N 34°24' E 134°16'714.3
2018-Apr-19 04:00N 34°26' E 134°08'712.9
2018-Apr-19 03:28N 34°25' E 133°59'712.7
2018-Apr-19 02:56N 34°23' E 133°52'17 2.5
2018-Apr-18 20:15N 34°17' E 133°33'35 9.4
2018-Apr-18 16:34N 34°07' E 132°52'218.1
2018-Apr-18 16:28N 34°06' E 132°51'918.6
2018-Apr-18 16:00N 33°59' E 132°44'918.6
2018-Apr-18 15:30N 33°52' E 132°36'1018.5
2018-Apr-18 14:58N 33°47' E 132°26'918.9
2018-Apr-18 14:29N 33°43' E 132°17'918.9
2018-Apr-18 14:00N 33°40' E 132°06'1217.8
2018-Apr-18 13:20N 33°43' E 131°52'618.1
2018-Apr-18 13:00N 33°44' E 131°45'917.6
2018-Apr-18 12:30N 33°47' E 131°35'917.5
2018-Apr-18 12:00N 33°48' E 131°25'816.6
2018-Apr-18 11:30N 33°42' E 131°18'511.0
2018-Apr-18 11:01N 33°37' E 131°15'0 0.0
2018-Apr-18 10:26N 33°37' E 131°15'0 0.0
2018-Apr-18 09:59N 33°37' E 131°15'0 0.0
2018-Apr-18 09:29N 33°37' E 131°15'0 0.0
2018-Apr-18 08:59N 33°37' E 131°15'0 0.0
2018-Apr-18 08:29N 33°37' E 131°15'0 0.0
2018-Apr-18 07:59N 33°37' E 131°15'0 0.2
2018-Apr-18 07:31N 33°37' E 131°15'510.5
2018-Apr-18 07:01N 33°42' E 131°15'918.8
2018-Apr-18 06:30N 33°49' E 131°08'713.3
2018-Apr-18 06:00N 33°53' E 131°02'2 2.9
2018-Apr-18 05:27N 33°53' E 130°60'0 0.0
2018-Apr-18 04:57N 33°53' E 130°60'0 0.0
2018-Apr-18 04:27N 33°53' E 130°60'0 0.0
2018-Apr-18 03:57N 33°53' E 130°60'0 0.0
2018-Apr-18 03:27N 33°53' E 130°60'0 0.0
2018-Apr-18 03:00N 33°53' E 130°60'0 0.0
2018-Apr-18 02:27N 33°53' E 130°60'0 0.0
2018-Apr-18 01:57N 33°53' E 130°60'0 0.0
2018-Apr-18 01:27N 33°53' E 130°60'0 0.0
2018-Apr-18 00:57N 33°53' E 130°60'0 0.0
2018-Apr-18 00:27N 33°53' E 130°60'0 0.0
2018-Apr-17 23:57N 33°53' E 130°60'0 0.0
2018-Apr-17 23:27N 33°53' E 130°60'0 0.0
2018-Apr-17 22:57N 33°53' E 130°60'0 0.0
2018-Apr-17 22:27N 33°53' E 130°60'0 0.0
2018-Apr-17 21:57N 33°53' E 130°60'0 0.0
2018-Apr-17 21:27N 33°53' E 130°60'0 0.0
2018-Apr-17 20:57N 33°53' E 130°60'0 0.0
2018-Apr-17 20:27N 33°53' E 130°60'0 0.3
2018-Apr-17 20:00N 33°53' E 130°60'4 8.6
2018-Apr-17 19:31N 33°54' E 131°05'816.9
2018-Apr-17 19:00N 33°52' E 131°14'1019.1
2018-Apr-17 18:30N 33°49' E 131°26'918.9
2018-Apr-17 18:00N 33°48' E 131°37'918.9
2018-Apr-17 17:30N 33°46' E 131°48'917.6
2018-Apr-17 17:00N 33°42' E 131°57'1117.7
2018-Apr-17 16:23N 33°34' E 132°07'716.1
2018-Apr-17 15:56N 33°37' E 132°15'818.8
2018-Apr-17 15:30N 33°43' E 132°21'1018.2
2018-Apr-17 14:59N 33°49' E 132°30'817.7
2018-Apr-17 14:30N 33°55' E 132°38'816.0
2018-Apr-17 14:01N 34°00' E 132°44'68 7.5
2018-Apr-17 04:58N 34°25' E 134°00'714.0
2018-Apr-17 04:30N 34°26' E 134°08'918.5
2018-Apr-17 04:00N 34°25' E 134°19'1020.3
2018-Apr-17 03:30N 34°28' E 134°30'1020.5
2018-Apr-17 03:00N 34°32' E 134°42'1121.0
2018-Apr-17 02:30N 34°36' E 134°54'1019.2
2018-Apr-17 02:00N 34°36' E 135°06'1019.7
2018-Apr-17 01:30N 34°37' E 135°17'611.8
2018-Apr-17 01:01N 34°41' E 135°23'0 0.0
2018-Apr-17 00:29N 34°41' E 135°23'0 0.0
2018-Apr-16 23:59N 34°41' E 135°23'0 0.0
2018-Apr-16 23:29N 34°41' E 135°23'0 0.0
2018-Apr-16 22:59N 34°41' E 135°23'0 0.4
2018-Apr-16 22:30N 34°41' E 135°23'5 9.7
2018-Apr-16 22:00N 34°38' E 135°19'714.6
2018-Apr-16 21:30N 34°31' E 135°15'714.0
2018-Apr-16 21:00N 34°26' E 135°09'918.1
2018-Apr-16 20:30N 34°20' E 135°01'816.7
2018-Apr-16 20:00N 34°11' E 134°60'918.1
2018-Apr-16 19:30N 34°02' E 134°60'917.9
2018-Apr-16 19:00N 33°53' E 135°01'816.1
2018-Apr-16 18:30N 33°46' E 135°04'918.3
2018-Apr-16 17:59N 33°39' E 135°12'1319.4
2018-Apr-16 17:19N 33°31' E 135°24'6318.1
2018-Apr-16 13:50N 33°55' E 136°34'820.6
2018-Apr-16 13:27N 34°01' E 136°39'920.3
2018-Apr-16 13:00N 34°07' E 136°48'2319.3
2018-Apr-16 11:50N 34°27' E 137°01'516.6
2018-Apr-16 11:30N 34°33' E 137°01'813.0
2018-Apr-16 10:56N 34°40' E 137°03'819.8
2018-Apr-16 10:31N 34°43' E 137°12'6 1.3
2018-Apr-16 05:55N 34°44' E 137°19'410.8
2018-Apr-16 05:30N 34°44' E 137°14'1119.5
2018-Apr-16 04:57N 34°39' E 137°02'818.7
2018-Apr-16 04:30N 34°42' E 136°52'1019.6
2018-Apr-16 04:00N 34°50' E 136°45'1019.3
2018-Apr-16 03:30N 34°59' E 136°47'610.6
2018-Apr-16 02:56N 35°03' E 136°53'0 0.0
2018-Apr-16 02:29N 35°03' E 136°53'0 0.0
2018-Apr-16 02:00N 35°03' E 136°53'0 0.0
2018-Apr-16 01:26N 35°03' E 136°53'0 0.9
2018-Apr-16 01:01N 35°03' E 136°53'0 0.6
2018-Apr-16 00:30N 35°03' E 136°53'0 0.0
2018-Apr-15 23:56N 35°03' E 136°53'0 0.0
2018-Apr-15 23:26N 35°03' E 136°53'0 0.0
2018-Apr-15 22:56N 35°03' E 136°53'0 0.4
2018-Apr-15 22:30N 35°03' E 136°53'713.6
2018-Apr-15 22:00N 34°57' E 136°48'1019.2
2018-Apr-15 21:30N 34°48' E 136°48'1019.6
2018-Apr-15 21:00N 34°40' E 136°55'815.2
2018-Apr-15 20:30N 34°34' E 137°01'916.7
2018-Apr-15 19:57N 34°32' E 137°12'918.7
2018-Apr-15 19:28N 34°31' E 137°23'817.7
2018-Apr-15 19:00N 34°31' E 137°32'1017.7
2018-Apr-15 18:25N 34°30' E 137°45'817.9
2018-Apr-15 17:59N 34°30' E 137°55'917.5
2018-Apr-15 17:26N 34°30' E 138°06'817.8
2018-Apr-15 17:00N 34°31' E 138°16'917.5
2018-Apr-15 16:29N 34°31' E 138°26'817.2
2018-Apr-15 16:00N 34°31' E 138°37'916.7
2018-Apr-15 15:28N 34°31' E 138°47'715.9
2018-Apr-15 15:00N 34°32' E 138°56'815.9
2018-Apr-15 14:30N 34°37' E 139°04'917.9
2018-Apr-15 14:01N 34°44' E 139°11'918.6
2018-Apr-15 13:30N 34°51' E 139°19'918.3
2018-Apr-15 13:00N 34°56' E 139°28'918.8
2018-Apr-15 12:31N 35°02' E 139°36'1019.3
2018-Apr-15 12:00N 35°09' E 139°44'713.9
2018-Apr-15 11:30N 35°16' E 139°46'713.3
2018-Apr-15 11:00N 35°22' E 139°42'3 5.6
2018-Apr-15 10:30N 35°23' E 139°39'0 0.0
2018-Apr-15 09:58N 35°23' E 139°39'0 0.0
2018-Apr-15 09:28N 35°23' E 139°39'0 0.0
2018-Apr-15 08:58N 35°23' E 139°39'0 0.0
2018-Apr-15 08:28N 35°23' E 139°39'0 0.0
2018-Apr-15 07:58N 35°23' E 139°39'0 0.0
2018-Apr-15 07:28N 35°23' E 139°39'0 0.0
2018-Apr-15 06:58N 35°23' E 139°39'0 0.0
2018-Apr-15 06:28N 35°23' E 139°39'0 0.0
2018-Apr-15 05:55N 35°23' E 139°39'0 0.3
2018-Apr-15 05:30N 35°24' E 139°39'713.4
2018-Apr-15 05:00N 35°26' E 139°46'1020.0
2018-Apr-15 04:30N 35°33' E 139°56'815.3
2018-Apr-15 04:00N 35°36' E 140°04'1 2.2
2018-Apr-15 03:31N 35°36' E 140°06'0 0.0
2018-Apr-15 02:58N 35°36' E 140°06'0 0.0
2018-Apr-15 02:28N 35°36' E 140°06'0 0.0
2018-Apr-15 01:55N 35°36' E 140°06'0 0.0
2018-Apr-15 01:25N 35°36' E 140°06'0 0.0
2018-Apr-15 00:55N 35°36' E 140°06'0 0.0
2018-Apr-15 00:25N 35°36' E 140°06'0 0.0
2018-Apr-14 23:55N 35°36' E 140°06'0 0.0
2018-Apr-14 23:28N 35°36' E 140°06'0 0.0
2018-Apr-14 22:58N 35°36' E 140°06'0 0.0
2018-Apr-14 22:25N 35°36' E 140°06'0 0.0
2018-Apr-14 21:58N 35°36' E 140°06'0 0.0
2018-Apr-14 21:28N 35°36' E 140°06'0 0.0
2018-Apr-14 20:55N 35°36' E 140°06'0 0.0
2018-Apr-14 20:30N 35°36' E 140°06'2 4.5
2018-Apr-14 20:00N 35°35' E 140°03'713.0
2018-Apr-14 19:30N 35°32' E 139°56'917.0
2018-Apr-14 19:00N 35°26' E 139°48'713.5
2018-Apr-14 18:30N 35°20' E 139°44'612.2
2018-Apr-14 18:00N 35°14' E 139°47'816.0
2018-Apr-14 17:30N 35°07' E 139°45'917.8
2018-Apr-14 17:00N 34°59' E 139°39'918.2
2018-Apr-14 16:30N 34°53' E 139°31'918.8
2018-Apr-14 16:00N 34°50' E 139°20'1319.2
2018-Apr-14 15:21N 34°40' E 139°11'619.0
2018-Apr-14 15:00N 34°35' E 139°05'613.0
2018-Apr-14 14:30N 34°31' E 138°59'917.7
2018-Apr-14 13:58N 34°29' E 138°48'919.0
2018-Apr-14 13:29N 34°29' E 138°37'918.9
2018-Apr-14 13:00N 34°29' E 138°26'917.8
2018-Apr-14 12:31N 34°29' E 138°15'1018.9
2018-Apr-14 12:00N 34°29' E 138°04'1119.2
2018-Apr-14 11:26N 34°30' E 137°51'1019.5
2018-Apr-14 10:56N 34°30' E 137°39'1119.5
2018-Apr-14 10:21N 34°31' E 137°25'819.5
2018-Apr-14 09:57N 34°32' E 137°16'919.1
2018-Apr-14 09:30N 34°32' E 137°05'713.5
2018-Apr-14 09:00N 34°35' E 136°58'1019.7
2018-Apr-14 08:30N 34°42' E 136°49'1019.6
2018-Apr-14 08:00N 34°51' E 136°46'918.7
2018-Apr-14 07:30N 34°60' E 136°49'4 8.1
2018-Apr-14 07:00N 35°03' E 136°53'  

Dump ship's entire track history